sensor_id;sensor_type;location;lat;lon;timestamp;P1;durP1;ratioP1;P2;durP2;ratioP2
75496;SDS011;64074;47.540;19.072;2023-04-15T00:00:07;11.23;;;6.80;;
75496;SDS011;64074;47.540;19.072;2023-04-15T00:03:15;10.50;;;6.82;;
75496;SDS011;64074;47.540;19.072;2023-04-15T00:06:18;12.35;;;7.30;;
75496;SDS011;64074;47.540;19.072;2023-04-15T00:09:22;10.70;;;6.10;;
75496;SDS011;64074;47.540;19.072;2023-04-15T00:12:25;10.43;;;6.40;;
75496;SDS011;64074;47.540;19.072;2023-04-15T00:15:29;13.30;;;7.90;;
75496;SDS011;64074;47.540;19.072;2023-04-15T00:18:31;14.30;;;8.48;;
75496;SDS011;64074;47.540;19.072;2023-04-15T00:21:34;15.55;;;8.52;;
75496;SDS011;64074;47.540;19.072;2023-04-15T00:24:37;14.85;;;8.77;;
75496;SDS011;64074;47.540;19.072;2023-04-15T00:27:40;14.90;;;8.77;;
75496;SDS011;64074;47.540;19.072;2023-04-15T00:30:43;14.13;;;8.47;;
75496;SDS011;64074;47.540;19.072;2023-04-15T00:33:47;15.25;;;8.50;;
75496;SDS011;64074;47.540;19.072;2023-04-15T00:36:50;14.60;;;9.00;;
75496;SDS011;64074;47.540;19.072;2023-04-15T00:39:54;15.88;;;8.52;;
75496;SDS011;64074;47.540;19.072;2023-04-15T00:42:58;17.30;;;8.93;;
75496;SDS011;64074;47.540;19.072;2023-04-15T00:46:01;16.93;;;9.77;;
75496;SDS011;64074;47.540;19.072;2023-04-15T00:49:07;17.63;;;9.90;;
75496;SDS011;64074;47.540;19.072;2023-04-15T00:52:10;17.42;;;9.57;;
75496;SDS011;64074;47.540;19.072;2023-04-15T00:55:14;14.27;;;8.80;;
75496;SDS011;64074;47.540;19.072;2023-04-15T00:58:17;16.00;;;9.43;;
75496;SDS011;64074;47.540;19.072;2023-04-15T01:01:21;16.97;;;10.07;;
75496;SDS011;64074;47.540;19.072;2023-04-15T01:04:24;15.30;;;9.30;;
75496;SDS011;64074;47.540;19.072;2023-04-15T01:07:28;17.17;;;9.68;;
75496;SDS011;64074;47.540;19.072;2023-04-15T01:10:32;15.77;;;9.07;;
75496;SDS011;64074;47.540;19.072;2023-04-15T01:13:35;16.10;;;9.23;;
75496;SDS011;64074;47.540;19.072;2023-04-15T01:16:38;16.47;;;9.77;;
75496;SDS011;64074;47.540;19.072;2023-04-15T01:19:41;17.30;;;10.23;;
75496;SDS011;64074;47.540;19.072;2023-04-15T01:22:45;16.73;;;9.23;;
75496;SDS011;64074;47.540;19.072;2023-04-15T01:25:48;16.20;;;9.43;;
75496;SDS011;64074;47.540;19.072;2023-04-15T01:28:53;15.57;;;9.40;;
75496;SDS011;64074;47.540;19.072;2023-04-15T01:31:56;15.70;;;9.10;;
75496;SDS011;64074;47.540;19.072;2023-04-15T01:35:00;17.42;;;9.48;;
75496;SDS011;64074;47.540;19.072;2023-04-15T01:38:07;15.40;;;9.85;;
75496;SDS011;64074;47.540;19.072;2023-04-15T01:41:14;16.27;;;9.27;;
75496;SDS011;64074;47.540;19.072;2023-04-15T01:44:18;15.60;;;9.13;;
75496;SDS011;64074;47.540;19.072;2023-04-15T01:47:21;15.80;;;9.67;;
75496;SDS011;64074;47.540;19.072;2023-04-15T01:50:24;16.33;;;9.27;;
75496;SDS011;64074;47.540;19.072;2023-04-15T01:53:29;16.90;;;9.93;;
75496;SDS011;64074;47.540;19.072;2023-04-15T01:56:32;15.57;;;9.77;;
75496;SDS011;64074;47.540;19.072;2023-04-15T01:59:35;16.97;;;10.20;;
75496;SDS011;64074;47.540;19.072;2023-04-15T02:02:38;16.23;;;9.80;;
75496;SDS011;64074;47.540;19.072;2023-04-15T02:05:41;16.48;;;10.00;;
75496;SDS011;64074;47.540;19.072;2023-04-15T02:08:45;18.08;;;10.40;;
75496;SDS011;64074;47.540;19.072;2023-04-15T02:11:49;19.17;;;10.40;;
75496;SDS011;64074;47.540;19.072;2023-04-15T02:14:52;16.07;;;9.77;;
75496;SDS011;64074;47.540;19.072;2023-04-15T02:17:57;16.60;;;9.80;;
75496;SDS011;64074;47.540;19.072;2023-04-15T02:21:02;16.25;;;9.70;;
75496;SDS011;64074;47.540;19.072;2023-04-15T02:24:07;15.77;;;9.43;;
75496;SDS011;64074;47.540;19.072;2023-04-15T02:27:10;14.95;;;9.10;;
75496;SDS011;64074;47.540;19.072;2023-04-15T02:30:17;16.33;;;9.37;;
75496;SDS011;64074;47.540;19.072;2023-04-15T02:33:20;15.90;;;9.47;;
75496;SDS011;64074;47.540;19.072;2023-04-15T02:36:23;14.90;;;8.65;;
75496;SDS011;64074;47.540;19.072;2023-04-15T02:39:26;15.75;;;8.77;;
75496;SDS011;64074;47.540;19.072;2023-04-15T02:42:29;14.57;;;8.48;;
75496;SDS011;64074;47.540;19.072;2023-04-15T02:45:36;14.20;;;8.13;;
75496;SDS011;64074;47.540;19.072;2023-04-15T02:48:39;14.43;;;8.50;;
75496;SDS011;64074;47.540;19.072;2023-04-15T02:51:43;14.15;;;8.23;;
75496;SDS011;64074;47.540;19.072;2023-04-15T02:54:50;14.85;;;8.05;;
75496;SDS011;64074;47.540;19.072;2023-04-15T02:57:53;14.20;;;8.18;;
75496;SDS011;64074;47.540;19.072;2023-04-15T03:00:55;14.93;;;8.13;;
75496;SDS011;64074;47.540;19.072;2023-04-15T03:03:59;13.97;;;8.10;;
75496;SDS011;64074;47.540;19.072;2023-04-15T03:07:01;13.98;;;8.18;;
75496;SDS011;64074;47.540;19.072;2023-04-15T03:10:04;13.57;;;7.93;;
75496;SDS011;64074;47.540;19.072;2023-04-15T03:13:08;13.65;;;8.30;;
75496;SDS011;64074;47.540;19.072;2023-04-15T03:16:13;13.90;;;8.30;;
75496;SDS011;64074;47.540;19.072;2023-04-15T03:19:16;14.33;;;8.60;;
75496;SDS011;64074;47.540;19.072;2023-04-15T03:22:19;15.43;;;8.50;;
75496;SDS011;64074;47.540;19.072;2023-04-15T03:25:22;14.52;;;8.43;;
75496;SDS011;64074;47.540;19.072;2023-04-15T03:28:26;13.77;;;8.65;;
75496;SDS011;64074;47.540;19.072;2023-04-15T03:31:31;15.20;;;9.13;;
75496;SDS011;64074;47.540;19.072;2023-04-15T03:34:34;13.43;;;8.43;;
75496;SDS011;64074;47.540;19.072;2023-04-15T03:37:37;14.90;;;8.40;;
75496;SDS011;64074;47.540;19.072;2023-04-15T03:40:40;14.32;;;8.90;;
75496;SDS011;64074;47.540;19.072;2023-04-15T03:43:44;13.23;;;8.02;;
75496;SDS011;64074;47.540;19.072;2023-04-15T03:46:46;14.20;;;8.30;;
75496;SDS011;64074;47.540;19.072;2023-04-15T03:49:50;14.50;;;8.70;;
75496;SDS011;64074;47.540;19.072;2023-04-15T03:52:53;13.60;;;8.25;;
75496;SDS011;64074;47.540;19.072;2023-04-15T03:55:56;13.77;;;8.90;;
75496;SDS011;64074;47.540;19.072;2023-04-15T03:58:59;15.35;;;8.18;;
75496;SDS011;64074;47.540;19.072;2023-04-15T04:02:03;14.63;;;9.03;;
75496;SDS011;64074;47.540;19.072;2023-04-15T04:05:05;13.37;;;8.60;;
75496;SDS011;64074;47.540;19.072;2023-04-15T04:08:10;14.23;;;8.80;;
75496;SDS011;64074;47.540;19.072;2023-04-15T04:11:15;14.32;;;8.90;;
75496;SDS011;64074;47.540;19.072;2023-04-15T04:14:18;15.00;;;9.32;;
75496;SDS011;64074;47.540;19.072;2023-04-15T04:17:20;15.27;;;8.80;;
75496;SDS011;64074;47.540;19.072;2023-04-15T04:20:23;13.33;;;8.50;;
75496;SDS011;64074;47.540;19.072;2023-04-15T04:23:27;13.88;;;8.52;;
75496;SDS011;64074;47.540;19.072;2023-04-15T04:26:29;14.02;;;8.57;;
75496;SDS011;64074;47.540;19.072;2023-04-15T04:29:33;13.88;;;8.35;;
75496;SDS011;64074;47.540;19.072;2023-04-15T04:32:39;14.27;;;8.73;;
75496;SDS011;64074;47.540;19.072;2023-04-15T04:35:42;16.27;;;9.20;;
75496;SDS011;64074;47.540;19.072;2023-04-15T04:38:45;14.23;;;9.23;;
75496;SDS011;64074;47.540;19.072;2023-04-15T04:41:49;13.80;;;8.77;;
75496;SDS011;64074;47.540;19.072;2023-04-15T04:44:53;15.55;;;9.70;;
75496;SDS011;64074;47.540;19.072;2023-04-15T04:47:56;18.63;;;10.10;;
75496;SDS011;64074;47.540;19.072;2023-04-15T04:50:59;23.63;;;12.70;;
75496;SDS011;64074;47.540;19.072;2023-04-15T04:54:02;24.35;;;12.18;;
75496;SDS011;64074;47.540;19.072;2023-04-15T04:57:05;20.60;;;10.77;;
75496;SDS011;64074;47.540;19.072;2023-04-15T05:00:09;19.10;;;10.50;;
75496;SDS011;64074;47.540;19.072;2023-04-15T05:03:12;15.90;;;9.37;;
75496;SDS011;64074;47.540;19.072;2023-04-15T05:06:15;18.70;;;10.33;;
75496;SDS011;64074;47.540;19.072;2023-04-15T05:09:18;15.75;;;9.48;;
75496;SDS011;64074;47.540;19.072;2023-04-15T05:12:21;14.95;;;8.23;;
75496;SDS011;64074;47.540;19.072;2023-04-15T05:15:23;15.90;;;9.60;;
75496;SDS011;64074;47.540;19.072;2023-04-15T05:18:26;13.63;;;8.33;;
75496;SDS011;64074;47.540;19.072;2023-04-15T05:21:30;15.27;;;9.20;;
75496;SDS011;64074;47.540;19.072;2023-04-15T05:24:33;13.35;;;8.57;;
75496;SDS011;64074;47.540;19.072;2023-04-15T05:27:35;16.30;;;9.30;;
75496;SDS011;64074;47.540;19.072;2023-04-15T05:30:39;15.25;;;8.15;;
75496;SDS011;64074;47.540;19.072;2023-04-15T05:33:42;14.23;;;8.57;;
75496;SDS011;64074;47.540;19.072;2023-04-15T05:36:46;14.03;;;8.30;;
75496;SDS011;64074;47.540;19.072;2023-04-15T05:39:48;12.60;;;7.22;;
75496;SDS011;64074;47.540;19.072;2023-04-15T05:42:51;11.43;;;7.07;;
75496;SDS011;64074;47.540;19.072;2023-04-15T05:45:55;10.73;;;7.15;;
75496;SDS011;64074;47.540;19.072;2023-04-15T05:48:58;12.73;;;6.90;;
75496;SDS011;64074;47.540;19.072;2023-04-15T05:52:02;9.07;;;5.77;;
75496;SDS011;64074;47.540;19.072;2023-04-15T05:55:05;10.07;;;6.57;;
75496;SDS011;64074;47.540;19.072;2023-04-15T05:58:08;9.90;;;5.93;;
75496;SDS011;64074;47.540;19.072;2023-04-15T06:01:11;9.68;;;6.72;;
75496;SDS011;64074;47.540;19.072;2023-04-15T06:04:13;10.13;;;6.43;;
75496;SDS011;64074;47.540;19.072;2023-04-15T06:07:17;9.60;;;6.80;;
75496;SDS011;64074;47.540;19.072;2023-04-15T06:10:20;12.02;;;8.63;;
75496;SDS011;64074;47.540;19.072;2023-04-15T06:13:22;10.85;;;6.60;;
75496;SDS011;64074;47.540;19.072;2023-04-15T06:16:25;9.68;;;6.20;;
75496;SDS011;64074;47.540;19.072;2023-04-15T06:19:28;9.00;;;6.20;;
75496;SDS011;64074;47.540;19.072;2023-04-15T06:22:31;8.00;;;5.83;;
75496;SDS011;64074;47.540;19.072;2023-04-15T06:25:34;8.60;;;6.18;;
75496;SDS011;64074;47.540;19.072;2023-04-15T06:28:37;7.75;;;5.25;;
75496;SDS011;64074;47.540;19.072;2023-04-15T06:31:48;9.10;;;5.60;;
75496;SDS011;64074;47.540;19.072;2023-04-15T06:34:51;9.50;;;5.83;;
75496;SDS011;64074;47.540;19.072;2023-04-15T06:37:53;7.47;;;5.50;;
75496;SDS011;64074;47.540;19.072;2023-04-15T06:40:57;9.07;;;5.70;;
75496;SDS011;64074;47.540;19.072;2023-04-15T06:44:00;8.85;;;5.68;;
75496;SDS011;64074;47.540;19.072;2023-04-15T06:47:03;7.82;;;5.65;;
75496;SDS011;64074;47.540;19.072;2023-04-15T06:50:06;9.03;;;5.87;;
75496;SDS011;64074;47.540;19.072;2023-04-15T06:53:10;10.07;;;5.87;;
75496;SDS011;64074;47.540;19.072;2023-04-15T06:56:14;9.43;;;5.78;;
75496;SDS011;64074;47.540;19.072;2023-04-15T06:59:16;6.55;;;4.78;;
75496;SDS011;64074;47.540;19.072;2023-04-15T07:02:20;6.47;;;5.28;;
75496;SDS011;64074;47.540;19.072;2023-04-15T07:05:23;8.10;;;5.17;;
75496;SDS011;64074;47.540;19.072;2023-04-15T07:08:26;6.50;;;5.30;;
75496;SDS011;64074;47.540;19.072;2023-04-15T07:11:29;6.57;;;4.97;;
75496;SDS011;64074;47.540;19.072;2023-04-15T07:14:32;6.93;;;4.82;;
75496;SDS011;64074;47.540;19.072;2023-04-15T07:17:35;7.10;;;5.18;;
75496;SDS011;64074;47.540;19.072;2023-04-15T07:20:38;6.17;;;5.00;;
75496;SDS011;64074;47.540;19.072;2023-04-15T07:23:42;9.57;;;5.90;;
75496;SDS011;64074;47.540;19.072;2023-04-15T07:26:45;7.43;;;5.15;;
75496;SDS011;64074;47.540;19.072;2023-04-15T07:29:48;7.75;;;5.00;;
75496;SDS011;64074;47.540;19.072;2023-04-15T07:32:53;7.15;;;5.40;;
75496;SDS011;64074;47.540;19.072;2023-04-15T07:35:56;6.80;;;5.03;;
75496;SDS011;64074;47.540;19.072;2023-04-15T07:38:59;7.80;;;5.10;;
75496;SDS011;64074;47.540;19.072;2023-04-15T07:42:05;5.43;;;4.25;;
75496;SDS011;64074;47.540;19.072;2023-04-15T07:45:09;7.22;;;4.03;;
75496;SDS011;64074;47.540;19.072;2023-04-15T07:48:12;5.05;;;4.18;;
75496;SDS011;64074;47.540;19.072;2023-04-15T07:51:15;5.53;;;3.70;;
75496;SDS011;64074;47.540;19.072;2023-04-15T07:54:20;5.23;;;3.90;;
75496;SDS011;64074;47.540;19.072;2023-04-15T07:57:22;4.45;;;3.40;;
75496;SDS011;64074;47.540;19.072;2023-04-15T08:00:25;4.22;;;3.45;;
75496;SDS011;64074;47.540;19.072;2023-04-15T08:03:28;3.35;;;2.80;;
75496;SDS011;64074;47.540;19.072;2023-04-15T08:06:31;3.50;;;3.07;;
75496;SDS011;64074;47.540;19.072;2023-04-15T08:09:34;5.70;;;3.50;;
75496;SDS011;64074;47.540;19.072;2023-04-15T08:12:37;6.25;;;3.10;;
75496;SDS011;64074;47.540;19.072;2023-04-15T08:15:39;5.65;;;3.65;;
75496;SDS011;64074;47.540;19.072;2023-04-15T08:18:42;3.58;;;3.15;;
75496;SDS011;64074;47.540;19.072;2023-04-15T08:21:46;4.57;;;3.07;;
75496;SDS011;64074;47.540;19.072;2023-04-15T08:24:49;3.13;;;2.40;;
75496;SDS011;64074;47.540;19.072;2023-04-15T08:27:54;4.30;;;2.47;;
75496;SDS011;64074;47.540;19.072;2023-04-15T08:30:58;2.50;;;2.20;;
75496;SDS011;64074;47.540;19.072;2023-04-15T08:34:02;3.83;;;2.10;;
75496;SDS011;64074;47.540;19.072;2023-04-15T08:37:04;4.60;;;1.90;;
75496;SDS011;64074;47.540;19.072;2023-04-15T08:40:08;3.47;;;1.90;;
75496;SDS011;64074;47.540;19.072;2023-04-15T08:43:14;2.33;;;2.08;;
75496;SDS011;64074;47.540;19.072;2023-04-15T08:46:22;1.67;;;1.20;;
75496;SDS011;64074;47.540;19.072;2023-04-15T08:49:26;2.72;;;1.77;;
75496;SDS011;64074;47.540;19.072;2023-04-15T08:52:30;4.17;;;1.80;;
75496;SDS011;64074;47.540;19.072;2023-04-15T08:55:33;2.07;;;1.70;;
75496;SDS011;64074;47.540;19.072;2023-04-15T08:58:38;2.70;;;1.98;;
75496;SDS011;64074;47.540;19.072;2023-04-15T09:01:41;2.92;;;2.13;;
75496;SDS011;64074;47.540;19.072;2023-04-15T09:04:46;2.70;;;1.95;;
75496;SDS011;64074;47.540;19.072;2023-04-15T09:07:51;2.50;;;1.50;;
75496;SDS011;64074;47.540;19.072;2023-04-15T09:10:54;2.00;;;1.60;;
75496;SDS011;64074;47.540;19.072;2023-04-15T09:13:57;2.28;;;1.60;;
75496;SDS011;64074;47.540;19.072;2023-04-15T09:17:00;3.65;;;1.30;;
75496;SDS011;64074;47.540;19.072;2023-04-15T09:20:09;2.85;;;1.90;;
75496;SDS011;64074;47.540;19.072;2023-04-15T09:23:13;2.30;;;1.40;;
75496;SDS011;64074;47.540;19.072;2023-04-15T09:26:18;1.60;;;1.30;;
75496;SDS011;64074;47.540;19.072;2023-04-15T09:29:20;3.60;;;1.60;;
75496;SDS011;64074;47.540;19.072;2023-04-15T09:32:27;1.80;;;1.20;;
75496;SDS011;64074;47.540;19.072;2023-04-15T09:35:30;1.55;;;1.20;;
75496;SDS011;64074;47.540;19.072;2023-04-15T09:38:32;1.63;;;1.20;;
75496;SDS011;64074;47.540;19.072;2023-04-15T09:41:35;1.70;;;1.50;;
75496;SDS011;64074;47.540;19.072;2023-04-15T09:44:38;3.35;;;1.45;;
75496;SDS011;64074;47.540;19.072;2023-04-15T09:47:40;2.25;;;1.23;;
75496;SDS011;64074;47.540;19.072;2023-04-15T09:50:43;4.45;;;2.10;;
75496;SDS011;64074;47.540;19.072;2023-04-15T09:53:46;2.33;;;1.33;;
75496;SDS011;64074;47.540;19.072;2023-04-15T09:56:58;1.63;;;1.10;;
75496;SDS011;64074;47.540;19.072;2023-04-15T10:00:09;3.05;;;2.10;;
75496;SDS011;64074;47.540;19.072;2023-04-15T10:03:13;5.07;;;2.80;;
75496;SDS011;64074;47.540;19.072;2023-04-15T10:06:26;4.72;;;2.50;;
75496;SDS011;64074;47.540;19.072;2023-04-15T10:09:29;4.17;;;2.90;;
75496;SDS011;64074;47.540;19.072;2023-04-15T10:12:33;4.90;;;2.70;;
75496;SDS011;64074;47.540;19.072;2023-04-15T10:15:40;5.53;;;2.80;;
75496;SDS011;64074;47.540;19.072;2023-04-15T10:18:47;3.40;;;2.00;;
75496;SDS011;64074;47.540;19.072;2023-04-15T10:21:57;3.05;;;2.05;;
75496;SDS011;64074;47.540;19.072;2023-04-15T10:25:01;2.33;;;1.63;;
75496;SDS011;64074;47.540;19.072;2023-04-15T10:28:05;2.07;;;1.43;;
75496;SDS011;64074;47.540;19.072;2023-04-15T10:31:10;2.65;;;1.92;;
75496;SDS011;64074;47.540;19.072;2023-04-15T10:34:14;2.38;;;1.67;;
75496;SDS011;64074;47.540;19.072;2023-04-15T10:37:32;3.35;;;1.48;;
75496;SDS011;64074;47.540;19.072;2023-04-15T10:40:37;2.23;;;1.40;;
75496;SDS011;64074;47.540;19.072;2023-04-15T10:44:14;1.77;;;1.20;;
75496;SDS011;64074;47.540;19.072;2023-04-15T10:47:13;1.20;;;0.75;;
75496;SDS011;64074;47.540;19.072;2023-04-15T10:50:25;4.63;;;2.70;;
75496;SDS011;64074;47.540;19.072;2023-04-15T10:53:30;2.40;;;0.70;;
75496;SDS011;64074;47.540;19.072;2023-04-15T10:56:33;1.67;;;0.50;;
75496;SDS011;64074;47.540;19.072;2023-04-15T10:59:36;3.20;;;2.47;;
75496;SDS011;64074;47.540;19.072;2023-04-15T11:02:41;1.80;;;1.20;;
75496;SDS011;64074;47.540;19.072;2023-04-15T11:05:52;1.38;;;0.90;;
75496;SDS011;64074;47.540;19.072;2023-04-15T11:08:56;1.55;;;1.30;;
75496;SDS011;64074;47.540;19.072;2023-04-15T11:12:04;1.53;;;1.43;;
75496;SDS011;64074;47.540;19.072;2023-04-15T11:18:33;3.20;;;1.83;;
75496;SDS011;64074;47.540;19.072;2023-04-15T11:21:36;1.67;;;1.25;;
75496;SDS011;64074;47.540;19.072;2023-04-15T11:24:48;1.27;;;1.00;;
75496;SDS011;64074;47.540;19.072;2023-04-15T11:27:51;1.20;;;0.63;;
75496;SDS011;64074;47.540;19.072;2023-04-15T11:31:04;0.60;;;0.40;;
75496;SDS011;64074;47.540;19.072;2023-04-15T11:34:08;2.75;;;0.70;;
75496;SDS011;64074;47.540;19.072;2023-04-15T11:37:11;3.47;;;0.70;;
75496;SDS011;64074;47.540;19.072;2023-04-15T11:40:14;1.67;;;0.70;;
75496;SDS011;64074;47.540;19.072;2023-04-15T11:43:19;1.03;;;0.67;;
75496;SDS011;64074;47.540;19.072;2023-04-15T11:46:29;0.80;;;0.70;;
75496;SDS011;64074;47.540;19.072;2023-04-15T11:49:33;1.00;;;0.57;;
75496;SDS011;64074;47.540;19.072;2023-04-15T11:52:39;0.85;;;0.68;;
75496;SDS011;64074;47.540;19.072;2023-04-15T11:58:51;2.50;;;0.60;;
75496;SDS011;64074;47.540;19.072;2023-04-15T12:01:55;1.20;;;0.60;;
75496;SDS011;64074;47.540;19.072;2023-04-15T12:05:03;1.73;;;0.70;;
75496;SDS011;64074;47.540;19.072;2023-04-15T12:08:10;0.88;;;0.30;;
75496;SDS011;64074;47.540;19.072;2023-04-15T12:11:13;0.80;;;0.60;;
75496;SDS011;64074;47.540;19.072;2023-04-15T12:14:27;0.80;;;0.50;;
75496;SDS011;64074;47.540;19.072;2023-04-15T12:17:33;0.60;;;0.30;;
75496;SDS011;64074;47.540;19.072;2023-04-15T12:20:53;0.73;;;0.57;;
75496;SDS011;64074;47.540;19.072;2023-04-15T12:23:56;1.63;;;0.73;;
75496;SDS011;64074;47.540;19.072;2023-04-15T12:27:05;1.83;;;0.70;;
75496;SDS011;64074;47.540;19.072;2023-04-15T12:30:09;1.33;;;0.80;;
75496;SDS011;64074;47.540;19.072;2023-04-15T12:33:13;1.13;;;0.93;;
75496;SDS011;64074;47.540;19.072;2023-04-15T12:36:17;1.67;;;0.90;;
75496;SDS011;64074;47.540;19.072;2023-04-15T12:39:23;1.17;;;0.75;;
75496;SDS011;64074;47.540;19.072;2023-04-15T12:42:26;1.70;;;0.90;;
75496;SDS011;64074;47.540;19.072;2023-04-15T12:45:30;2.27;;;0.80;;
75496;SDS011;64074;47.540;19.072;2023-04-15T12:48:33;2.07;;;0.70;;
75496;SDS011;64074;47.540;19.072;2023-04-15T12:51:36;2.83;;;1.20;;
75496;SDS011;64074;47.540;19.072;2023-04-15T12:54:38;2.95;;;1.00;;
75496;SDS011;64074;47.540;19.072;2023-04-15T12:57:42;2.30;;;0.90;;
75496;SDS011;64074;47.540;19.072;2023-04-15T13:00:44;4.07;;;0.90;;
75496;SDS011;64074;47.540;19.072;2023-04-15T13:03:48;0.80;;;0.73;;
75496;SDS011;64074;47.540;19.072;2023-04-15T13:06:53;1.10;;;0.70;;
75496;SDS011;64074;47.540;19.072;2023-04-15T13:09:56;0.93;;;0.73;;
75496;SDS011;64074;47.540;19.072;2023-04-15T13:12:58;2.72;;;0.80;;
75496;SDS011;64074;47.540;19.072;2023-04-15T13:16:01;2.10;;;1.10;;
75496;SDS011;64074;47.540;19.072;2023-04-15T13:19:04;2.13;;;1.20;;
75496;SDS011;64074;47.540;19.072;2023-04-15T13:22:07;1.60;;;1.13;;
75496;SDS011;64074;47.540;19.072;2023-04-15T13:25:10;3.20;;;1.48;;
75496;SDS011;64074;47.540;19.072;2023-04-15T13:28:13;2.20;;;1.20;;
75496;SDS011;64074;47.540;19.072;2023-04-15T13:31:16;1.13;;;0.90;;
75496;SDS011;64074;47.540;19.072;2023-04-15T13:34:19;1.80;;;1.20;;
75496;SDS011;64074;47.540;19.072;2023-04-15T13:37:25;1.27;;;0.95;;
75496;SDS011;64074;47.540;19.072;2023-04-15T13:40:31;1.17;;;0.82;;
75496;SDS011;64074;47.540;19.072;2023-04-15T13:43:34;1.15;;;1.00;;
75496;SDS011;64074;47.540;19.072;2023-04-15T13:46:36;1.30;;;1.03;;
75496;SDS011;64074;47.540;19.072;2023-04-15T13:49:40;2.17;;;1.10;;
75496;SDS011;64074;47.540;19.072;2023-04-15T13:52:44;2.20;;;1.00;;
75496;SDS011;64074;47.540;19.072;2023-04-15T13:55:46;1.52;;;0.80;;
75496;SDS011;64074;47.540;19.072;2023-04-15T13:58:50;1.15;;;0.85;;
75496;SDS011;64074;47.540;19.072;2023-04-15T14:01:54;3.53;;;1.07;;
75496;SDS011;64074;47.540;19.072;2023-04-15T14:04:57;1.70;;;1.20;;
75496;SDS011;64074;47.540;19.072;2023-04-15T14:08:00;2.13;;;1.40;;
75496;SDS011;64074;47.540;19.072;2023-04-15T14:11:02;3.00;;;1.42;;
75496;SDS011;64074;47.540;19.072;2023-04-15T14:14:05;2.75;;;1.75;;
75496;SDS011;64074;47.540;19.072;2023-04-15T14:17:08;3.30;;;1.83;;
75496;SDS011;64074;47.540;19.072;2023-04-15T14:20:10;3.03;;;2.17;;
75496;SDS011;64074;47.540;19.072;2023-04-15T14:23:15;4.75;;;2.78;;
75496;SDS011;64074;47.540;19.072;2023-04-15T14:26:17;5.57;;;3.10;;
75496;SDS011;64074;47.540;19.072;2023-04-15T14:29:20;4.75;;;3.20;;
75496;SDS011;64074;47.540;19.072;2023-04-15T14:32:24;2.60;;;1.53;;
75496;SDS011;64074;47.540;19.072;2023-04-15T14:35:28;1.83;;;1.60;;
75496;SDS011;64074;47.540;19.072;2023-04-15T14:38:32;5.68;;;1.98;;
75496;SDS011;64074;47.540;19.072;2023-04-15T14:41:39;3.97;;;2.40;;
75496;SDS011;64074;47.540;19.072;2023-04-15T14:44:42;3.60;;;2.60;;
75496;SDS011;64074;47.540;19.072;2023-04-15T14:47:46;3.57;;;2.27;;
75496;SDS011;64074;47.540;19.072;2023-04-15T14:50:49;4.97;;;3.40;;
75496;SDS011;64074;47.540;19.072;2023-04-15T14:53:52;4.40;;;3.45;;
75496;SDS011;64074;47.540;19.072;2023-04-15T14:56:54;6.28;;;4.15;;
75496;SDS011;64074;47.540;19.072;2023-04-15T14:59:57;6.80;;;4.20;;
75496;SDS011;64074;47.540;19.072;2023-04-15T15:03:01;6.07;;;4.00;;
75496;SDS011;64074;47.540;19.072;2023-04-15T15:06:05;5.77;;;3.83;;
75496;SDS011;64074;47.540;19.072;2023-04-15T15:09:08;5.68;;;3.30;;
75496;SDS011;64074;47.540;19.072;2023-04-15T15:12:10;4.32;;;3.13;;
75496;SDS011;64074;47.540;19.072;2023-04-15T15:15:13;3.90;;;2.70;;
75496;SDS011;64074;47.540;19.072;2023-04-15T15:18:30;4.63;;;2.53;;
75496;SDS011;64074;47.540;19.072;2023-04-15T15:21:33;3.20;;;2.20;;
75496;SDS011;64074;47.540;19.072;2023-04-15T15:24:36;3.20;;;1.70;;
75496;SDS011;64074;47.540;19.072;2023-04-15T15:27:38;2.17;;;1.40;;
75496;SDS011;64074;47.540;19.072;2023-04-15T15:30:41;2.10;;;1.30;;
75496;SDS011;64074;47.540;19.072;2023-04-15T15:33:44;2.40;;;1.17;;
75496;SDS011;64074;47.540;19.072;2023-04-15T15:36:47;1.67;;;0.97;;
75496;SDS011;64074;47.540;19.072;2023-04-15T15:39:51;1.20;;;0.50;;
75496;SDS011;64074;47.540;19.072;2023-04-15T15:42:54;2.17;;;0.57;;
75496;SDS011;64074;47.540;19.072;2023-04-15T15:45:57;2.13;;;0.40;;
75496;SDS011;64074;47.540;19.072;2023-04-15T15:49:01;2.67;;;0.67;;
75496;SDS011;64074;47.540;19.072;2023-04-15T15:52:05;1.33;;;1.00;;
75496;SDS011;64074;47.540;19.072;2023-04-15T15:55:08;2.08;;;1.05;;
75496;SDS011;64074;47.540;19.072;2023-04-15T15:58:11;1.10;;;0.77;;
75496;SDS011;64074;47.540;19.072;2023-04-15T16:01:14;1.73;;;0.60;;
75496;SDS011;64074;47.540;19.072;2023-04-15T16:04:17;2.80;;;1.00;;
75496;SDS011;64074;47.540;19.072;2023-04-15T16:07:20;2.43;;;1.20;;
75496;SDS011;64074;47.540;19.072;2023-04-15T16:10:23;1.75;;;1.30;;
75496;SDS011;64074;47.540;19.072;2023-04-15T16:13:26;2.30;;;1.15;;
75496;SDS011;64074;47.540;19.072;2023-04-15T16:16:29;3.83;;;1.70;;
75496;SDS011;64074;47.540;19.072;2023-04-15T16:19:32;2.90;;;1.77;;
75496;SDS011;64074;47.540;19.072;2023-04-15T16:22:34;3.03;;;2.07;;
75496;SDS011;64074;47.540;19.072;2023-04-15T16:25:37;4.05;;;2.22;;
75496;SDS011;64074;47.540;19.072;2023-04-15T16:28:40;4.15;;;2.30;;
75496;SDS011;64074;47.540;19.072;2023-04-15T16:31:43;3.63;;;1.92;;
75496;SDS011;64074;47.540;19.072;2023-04-15T16:34:46;3.53;;;2.00;;
75496;SDS011;64074;47.540;19.072;2023-04-15T16:37:48;3.07;;;2.13;;
75496;SDS011;64074;47.540;19.072;2023-04-15T16:40:52;3.92;;;2.50;;
75496;SDS011;64074;47.540;19.072;2023-04-15T16:43:55;3.50;;;2.35;;
75496;SDS011;64074;47.540;19.072;2023-04-15T16:47:00;3.65;;;2.38;;
75496;SDS011;64074;47.540;19.072;2023-04-15T16:50:04;4.73;;;2.20;;
75496;SDS011;64074;47.540;19.072;2023-04-15T16:53:07;4.67;;;2.40;;
75496;SDS011;64074;47.540;19.072;2023-04-15T16:56:10;3.58;;;2.40;;
75496;SDS011;64074;47.540;19.072;2023-04-15T16:59:12;4.75;;;2.47;;
75496;SDS011;64074;47.540;19.072;2023-04-15T17:02:16;2.80;;;1.95;;
75496;SDS011;64074;47.540;19.072;2023-04-15T17:05:19;3.93;;;2.10;;
75496;SDS011;64074;47.540;19.072;2023-04-15T17:08:22;4.47;;;2.30;;
75496;SDS011;64074;47.540;19.072;2023-04-15T17:11:26;3.38;;;1.83;;
75496;SDS011;64074;47.540;19.072;2023-04-15T17:14:30;6.20;;;1.88;;
75496;SDS011;64074;47.540;19.072;2023-04-15T17:17:33;3.83;;;2.10;;
75496;SDS011;64074;47.540;19.072;2023-04-15T17:20:37;3.90;;;2.00;;
75496;SDS011;64074;47.540;19.072;2023-04-15T17:23:41;2.77;;;2.00;;
75496;SDS011;64074;47.540;19.072;2023-04-15T17:26:45;3.40;;;2.40;;
75496;SDS011;64074;47.540;19.072;2023-04-15T17:29:48;3.40;;;2.45;;
75496;SDS011;64074;47.540;19.072;2023-04-15T17:32:51;4.65;;;2.70;;
75496;SDS011;64074;47.540;19.072;2023-04-15T17:35:56;3.53;;;2.40;;
75496;SDS011;64074;47.540;19.072;2023-04-15T17:38:59;3.73;;;2.60;;
75496;SDS011;64074;47.540;19.072;2023-04-15T17:42:01;3.72;;;2.78;;
75496;SDS011;64074;47.540;19.072;2023-04-15T17:45:04;13.50;;;3.20;;
75496;SDS011;64074;47.540;19.072;2023-04-15T17:48:07;4.30;;;3.15;;
75496;SDS011;64074;47.540;19.072;2023-04-15T17:51:10;4.57;;;3.20;;
75496;SDS011;64074;47.540;19.072;2023-04-15T17:54:14;4.33;;;3.40;;
75496;SDS011;64074;47.540;19.072;2023-04-15T17:57:17;5.00;;;3.50;;
75496;SDS011;64074;47.540;19.072;2023-04-15T18:00:20;5.40;;;3.90;;
75496;SDS011;64074;47.540;19.072;2023-04-15T18:03:24;6.53;;;4.10;;
75496;SDS011;64074;47.540;19.072;2023-04-15T18:06:27;5.87;;;3.73;;
75496;SDS011;64074;47.540;19.072;2023-04-15T18:09:31;5.87;;;3.80;;